EEPU

Pärnu

Airport
ICAO code
EEPU
Summary
ICAO Region
EUR
ICAO Territory
Location

Pärnu,

Coordinates
58° 25' 20" N , 24° 27' 57" E
Metar
EEPU 210420Z AUTO 25002KT 9999 OVC030/// 01/M04 Q1022

Pärnu Airport (IATA: EPU, ICAO: EEPU) is an airport in Estonia. The airport is situated 4 km from the city of Pärnu.

Runways

Designator Length Width Surface Rops
3/21 2480 45 CON No/No

Airport map

Aerial View

SKYbrary Partners:

Safety knowledge contributed by: